15°C Temp
15°C Dewpoint
100% Humidity
Temperature
11 KM/H
7 MPH
6 KTS
200°
South South
West

Wind Speed
Partly Cloudy
Conditions
Pressure 1008.92 (hPa) - 29.79 (in)
Visibility 6.2 (mi) - 10.0 (km)

Current Conditions
LEJR
Location 25(km)
Metar :LEJR 212130Z 20006KT 9999 FEW008 SCT018 BKN022 15/15 Q1009 RERA
Thu 21st November 23:30 pm

Airport
  Metar Aviation API Data Provided by https://www.checkwx.com/ PHP scripts by weather34.com ©2019